Decoded Metar for KPWA (OKLA CITY/WILEY in OK, USA) (IATA:PWA) | Meteo·Mobile Aviation Weather
aviador You're here:

KPWA Decoded Metar

OKLA CITY/WILEY in OK, USA
Report Time2018-10-18 08:53:00
UTC Time2018-10-18 09:46:18
Flight Rules vfr VFR
Wind010° at 03 kt
W.Decomp.*RWY 35: 2.9 kt HW 0.8 kt RCW
RWY 31: 1.7 kt HW 2.5 kt RCW
W.Rank010° ranks 8
Current wind is below 010° avg. (10.2)
Visibility9999 m
Phenomena:N/A
Clouds:Overcast 100 Hf
Expected CloudBase > 2,000 ft AGL from Temp-Dew spread
Ceiling10,000 ft
Temp13°C (ISA +1)
Dew Point08°C (72% RH)
AAT11.5°C
QNH1031 hPa
Density Alt915 ft
Elevation1,302 ft
Report Wrong Elevation
Raw Report
KPWA 180853Z AUTO 01003KT 10SM OVC100 13/08 A3044 RMK AO2 SLP303
T01330083 55004=

Extra information for KPWA:More info

Metar Taf Metar & Taf Last 4 Metars F.Rules Stats Wind Profile Meteogram Temp Stats Airport Information Weather charts Add Link Nearby VenuesMetar ALERT Operation Metar Decoded Social comments

AIRNAV info for KPWA